sensor_id;sensor_type;location;lat;lon;timestamp;pressure;altitude;pressure_sealevel;temperature;humidity
80733;BME280;70130;44.534;18.678;2024-01-30T00:01:06;101095.59;;;-2.28;100.00
80733;BME280;70130;44.534;18.678;2024-01-30T00:03:38;101090.28;;;-2.34;100.00
80733;BME280;70130;44.534;18.678;2024-01-30T00:06:07;101092.41;;;-2.44;100.00
80733;BME280;70130;44.534;18.678;2024-01-30T00:08:39;101107.28;;;-2.30;100.00
80733;BME280;70130;44.534;18.678;2024-01-30T00:11:04;101097.16;;;-2.54;100.00
80733;BME280;70130;44.534;18.678;2024-01-30T00:13:33;101092.44;;;-2.59;100.00
80733;BME280;70130;44.534;18.678;2024-01-30T00:15:59;101098.41;;;-2.50;100.00
80733;BME280;70130;44.534;18.678;2024-01-30T00:18:27;101091.88;;;-2.54;100.00
80733;BME280;70130;44.534;18.678;2024-01-30T00:20:53;101115.88;;;-2.43;100.00
80733;BME280;70130;44.534;18.678;2024-01-30T00:23:22;101112.53;;;-2.51;100.00
80733;BME280;70130;44.534;18.678;2024-01-30T00:25:47;101093.44;;;-2.60;100.00
80733;BME280;70130;44.534;18.678;2024-01-30T00:28:13;101091.03;;;-2.62;100.00
80733;BME280;70130;44.534;18.678;2024-01-30T00:30:44;101116.44;;;-2.47;100.00
80733;BME280;70130;44.534;18.678;2024-01-30T00:33:13;101105.66;;;-2.52;100.00
80733;BME280;70130;44.534;18.678;2024-01-30T00:35:38;101116.81;;;-2.50;100.00
80733;BME280;70130;44.534;18.678;2024-01-30T00:38:04;101090.69;;;-2.73;100.00
80733;BME280;70130;44.534;18.678;2024-01-30T00:40:32;101089.75;;;-2.66;100.00
80733;BME280;70130;44.534;18.678;2024-01-30T00:42:58;101094.81;;;-2.64;100.00
80733;BME280;70130;44.534;18.678;2024-01-30T00:45:27;101107.84;;;-2.56;100.00
80733;BME280;70130;44.534;18.678;2024-01-30T00:47:52;101090.31;;;-2.70;100.00
80733;BME280;70130;44.534;18.678;2024-01-30T00:50:21;101104.34;;;-2.63;100.00
80733;BME280;70130;44.534;18.678;2024-01-30T00:52:47;101095.69;;;-2.78;100.00
80733;BME280;70130;44.534;18.678;2024-01-30T00:55:15;101112.66;;;-2.59;100.00
80733;BME280;70130;44.534;18.678;2024-01-30T00:57:53;101087.00;;;-2.79;100.00
80733;BME280;70130;44.534;18.678;2024-01-30T01:00:18;101097.50;;;-2.79;100.00
80733;BME280;70130;44.534;18.678;2024-01-30T01:02:46;101112.72;;;-2.74;100.00
80733;BME280;70130;44.534;18.678;2024-01-30T01:05:12;101111.16;;;-2.69;100.00
80733;BME280;70130;44.534;18.678;2024-01-30T01:07:40;101112.88;;;-2.76;100.00
80733;BME280;70130;44.534;18.678;2024-01-30T01:10:10;101111.53;;;-2.72;100.00
80733;BME280;70130;44.534;18.678;2024-01-30T01:12:39;101105.56;;;-2.80;100.00
80733;BME280;70130;44.534;18.678;2024-01-30T01:15:08;101093.09;;;-2.93;100.00
80733;BME280;70130;44.534;18.678;2024-01-30T01:17:39;101118.00;;;-2.89;100.00
80733;BME280;70130;44.534;18.678;2024-01-30T01:20:08;101114.47;;;-2.96;100.00
80733;BME280;70130;44.534;18.678;2024-01-30T01:22:39;101098.66;;;-3.02;100.00
80733;BME280;70130;44.534;18.678;2024-01-30T01:25:07;101095.94;;;-3.09;100.00
80733;BME280;70130;44.534;18.678;2024-01-30T01:27:36;101100.00;;;-3.07;100.00
80733;BME280;70130;44.534;18.678;2024-01-30T01:30:08;101109.59;;;-2.99;100.00
80733;BME280;70130;44.534;18.678;2024-01-30T01:32:34;101085.25;;;-3.08;100.00
80733;BME280;70130;44.534;18.678;2024-01-30T01:35:03;101104.97;;;-2.97;100.00
80733;BME280;70130;44.534;18.678;2024-01-30T01:37:33;101101.09;;;-3.01;100.00
80733;BME280;70130;44.534;18.678;2024-01-30T01:39:59;101106.34;;;-3.01;100.00
80733;BME280;70130;44.534;18.678;2024-01-30T01:42:34;101106.59;;;-2.96;100.00
80733;BME280;70130;44.534;18.678;2024-01-30T01:45:04;101099.47;;;-3.02;100.00
80733;BME280;70130;44.534;18.678;2024-01-30T01:47:33;101106.78;;;-2.97;100.00
80733;BME280;70130;44.534;18.678;2024-01-30T01:50:02;101101.19;;;-3.09;100.00
80733;BME280;70130;44.534;18.678;2024-01-30T01:52:32;101110.59;;;-3.15;100.00
80733;BME280;70130;44.534;18.678;2024-01-30T01:55:00;101105.16;;;-3.13;100.00
80733;BME280;70130;44.534;18.678;2024-01-30T01:57:26;101100.09;;;-3.15;100.00
80733;BME280;70130;44.534;18.678;2024-01-30T02:00:08;101089.44;;;-3.42;100.00
80733;BME280;70130;44.534;18.678;2024-01-30T02:02:36;101113.88;;;-3.27;100.00
80733;BME280;70130;44.534;18.678;2024-01-30T02:05:05;101113.78;;;-3.19;100.00
80733;BME280;70130;44.534;18.678;2024-01-30T02:07:34;101096.66;;;-3.30;100.00
80733;BME280;70130;44.534;18.678;2024-01-30T02:10:07;101109.06;;;-3.24;100.00
80733;BME280;70130;44.534;18.678;2024-01-30T02:12:33;101092.72;;;-3.40;100.00
80733;BME280;70130;44.534;18.678;2024-01-30T02:15:02;101105.00;;;-3.26;100.00
80733;BME280;70130;44.534;18.678;2024-01-30T02:17:31;101113.88;;;-3.27;100.00
80733;BME280;70130;44.534;18.678;2024-01-30T02:20:03;101113.59;;;-3.47;100.00
80733;BME280;70130;44.534;18.678;2024-01-30T02:22:32;101099.94;;;-3.42;100.00
80733;BME280;70130;44.534;18.678;2024-01-30T02:24:59;101110.59;;;-3.29;100.00
80733;BME280;70130;44.534;18.678;2024-01-30T02:27:25;101116.22;;;-3.32;100.00
80733;BME280;70130;44.534;18.678;2024-01-30T02:29:59;101087.72;;;-3.50;100.00
80733;BME280;70130;44.534;18.678;2024-01-30T02:32:28;101092.25;;;-3.44;100.00
80733;BME280;70130;44.534;18.678;2024-01-30T02:34:56;101100.59;;;-3.40;100.00
80733;BME280;70130;44.534;18.678;2024-01-30T02:37:28;101111.09;;;-3.40;100.00
80733;BME280;70130;44.534;18.678;2024-01-30T02:39:53;101116.34;;;-3.40;100.00
80733;BME280;70130;44.534;18.678;2024-01-30T02:42:19;101108.53;;;-3.49;100.00
80733;BME280;70130;44.534;18.678;2024-01-30T02:44:48;101114.06;;;-3.43;100.00
80733;BME280;70130;44.534;18.678;2024-01-30T02:47:16;101108.63;;;-3.57;100.00
80733;BME280;70130;44.534;18.678;2024-01-30T02:49:42;101119.41;;;-3.52;100.00
80733;BME280;70130;44.534;18.678;2024-01-30T02:52:10;101115.25;;;-3.46;100.00
80733;BME280;70130;44.534;18.678;2024-01-30T02:54:39;101115.69;;;-3.57;100.00
80733;BME280;70130;44.534;18.678;2024-01-30T02:57:26;101120.03;;;-3.50;100.00
80733;BME280;70130;44.534;18.678;2024-01-30T02:59:58;101120.03;;;-3.50;100.00
80733;BME280;70130;44.534;18.678;2024-01-30T03:02:26;101123.84;;;-3.52;100.00
80733;BME280;70130;44.534;18.678;2024-01-30T03:04:55;101127.72;;;-3.63;100.00
80733;BME280;70130;44.534;18.678;2024-01-30T03:07:33;101120.38;;;-3.53;100.00
80733;BME280;70130;44.534;18.678;2024-01-30T03:09:59;101115.69;;;-3.57;100.00
80733;BME280;70130;44.534;18.678;2024-01-30T03:12:37;101079.22;;;-3.81;100.00
80733;BME280;70130;44.534;18.678;2024-01-30T03:15:05;101121.66;;;-3.63;100.00
80733;BME280;70130;44.534;18.678;2024-01-30T03:17:34;101115.56;;;-3.64;100.00
80733;BME280;70130;44.534;18.678;2024-01-30T03:20:05;101106.00;;;-3.71;100.00
80733;BME280;70130;44.534;18.678;2024-01-30T03:22:31;101106.81;;;-3.71;100.00
80733;BME280;70130;44.534;18.678;2024-01-30T03:25:00;101115.78;;;-3.65;100.00
80733;BME280;70130;44.534;18.678;2024-01-30T03:27:37;101106.34;;;-3.74;100.00
80733;BME280;70130;44.534;18.678;2024-01-30T03:30:06;101112.31;;;-3.80;100.00
80733;BME280;70130;44.534;18.678;2024-01-30T03:32:41;101098.38;;;-3.81;100.00
80733;BME280;70130;44.534;18.678;2024-01-30T03:35:10;101105.16;;;-3.86;100.00
80733;BME280;70130;44.534;18.678;2024-01-30T03:37:38;101106.97;;;-3.87;100.00
80733;BME280;70130;44.534;18.678;2024-01-30T03:40:04;101106.59;;;-3.84;100.00
80733;BME280;70130;44.534;18.678;2024-01-30T03:42:30;101103.69;;;-3.89;100.00
80733;BME280;70130;44.534;18.678;2024-01-30T03:44:59;101103.69;;;-3.89;100.00
80733;BME280;70130;44.534;18.678;2024-01-30T03:47:28;101101.59;;;-3.94;100.00
80733;BME280;70130;44.534;18.678;2024-01-30T03:49:53;101090.81;;;-3.99;100.00
80733;BME280;70130;44.534;18.678;2024-01-30T03:52:26;101081.94;;;-4.12;100.00
80733;BME280;70130;44.534;18.678;2024-01-30T03:54:52;101104.41;;;-3.95;100.00
80733;BME280;70130;44.534;18.678;2024-01-30T03:57:20;101111.94;;;-3.92;100.00
80733;BME280;70130;44.534;18.678;2024-01-30T03:59:49;101119.72;;;-3.84;100.00
80733;BME280;70130;44.534;18.678;2024-01-30T04:02:18;101103.50;;;-4.02;100.00
80733;BME280;70130;44.534;18.678;2024-01-30T04:04:46;101121.75;;;-3.94;100.00
80733;BME280;70130;44.534;18.678;2024-01-30T04:07:14;101117.38;;;-4.16;100.00
80733;BME280;70130;44.534;18.678;2024-01-30T04:09:46;101116.97;;;-4.05;100.00
80733;BME280;70130;44.534;18.678;2024-01-30T04:12:15;101088.19;;;-4.13;100.00
80733;BME280;70130;44.534;18.678;2024-01-30T04:14:43;101119.69;;;-3.99;100.00
80733;BME280;70130;44.534;18.678;2024-01-30T04:17:12;101124.91;;;-3.99;100.00
80733;BME280;70130;44.534;18.678;2024-01-30T04:19:40;101126.56;;;-3.98;100.00
80733;BME280;70130;44.534;18.678;2024-01-30T04:22:09;101114.69;;;-4.08;100.00
80733;BME280;70130;44.534;18.678;2024-01-30T04:24:38;101104.03;;;-4.07;100.00
80733;BME280;70130;44.534;18.678;2024-01-30T04:27:03;101106.75;;;-4.00;100.00
80733;BME280;70130;44.534;18.678;2024-01-30T04:29:32;101124.38;;;-3.94;100.00
80733;BME280;70130;44.534;18.678;2024-01-30T04:32:01;101129.28;;;-3.91;100.00
80733;BME280;70130;44.534;18.678;2024-01-30T04:34:30;101124.66;;;-3.89;100.00
80733;BME280;70130;44.534;18.678;2024-01-30T04:37:02;101130.53;;;-4.02;100.00
80733;BME280;70130;44.534;18.678;2024-01-30T04:39:28;101127.63;;;-4.07;100.00
80733;BME280;70130;44.534;18.678;2024-01-30T04:41:53;101135.81;;;-4.24;100.00
80733;BME280;70130;44.534;18.678;2024-01-30T04:44:31;101124.78;;;-4.20;100.00
80733;BME280;70130;44.534;18.678;2024-01-30T04:46:59;101112.22;;;-4.24;100.00
80733;BME280;70130;44.534;18.678;2024-01-30T04:49:29;101141.19;;;-4.03;100.00
80733;BME280;70130;44.534;18.678;2024-01-30T04:52:01;101135.94;;;-4.03;100.00
80733;BME280;70130;44.534;18.678;2024-01-30T04:54:29;101121.63;;;-4.15;99.87
80733;BME280;70130;44.534;18.678;2024-01-30T04:57:13;101128.50;;;-4.14;99.53
80733;BME280;70130;44.534;18.678;2024-01-30T04:59:41;101138.63;;;-4.11;99.52
80733;BME280;70130;44.534;18.678;2024-01-30T05:02:07;101130.19;;;-4.21;99.42
80733;BME280;70130;44.534;18.678;2024-01-30T05:04:36;101138.63;;;-4.11;99.58
80733;BME280;70130;44.534;18.678;2024-01-30T05:07:01;101115.97;;;-4.27;99.43
80733;BME280;70130;44.534;18.678;2024-01-30T05:09:30;101140.00;;;-4.15;99.53
80733;BME280;70130;44.534;18.678;2024-01-30T05:12:33;101141.97;;;-4.17;99.48
80733;BME280;70130;44.534;18.678;2024-01-30T05:15:01;101114.59;;;-4.38;99.59
80733;BME280;70130;44.534;18.678;2024-01-30T05:17:39;101135.72;;;-4.16;99.59
80733;BME280;70130;44.534;18.678;2024-01-30T05:20:09;101136.56;;;-4.16;99.49
80733;BME280;70130;44.534;18.678;2024-01-30T05:22:39;101140.97;;;-4.16;99.40
80733;BME280;70130;44.534;18.678;2024-01-30T05:25:10;101129.03;;;-4.42;99.17
80733;BME280;70130;44.534;18.678;2024-01-30T05:27:36;101140.56;;;-4.28;99.15
80733;BME280;70130;44.534;18.678;2024-01-30T05:30:06;101141.75;;;-4.30;99.00
80733;BME280;70130;44.534;18.678;2024-01-30T05:32:43;101155.97;;;-4.25;98.78
80733;BME280;70130;44.534;18.678;2024-01-30T05:35:24;101147.91;;;-4.23;98.54
80733;BME280;70130;44.534;18.678;2024-01-30T05:37:56;101139.81;;;-4.37;98.50
80733;BME280;70130;44.534;18.678;2024-01-30T05:40:21;101151.63;;;-4.41;98.79
80733;BME280;70130;44.534;18.678;2024-01-30T05:42:52;101145.56;;;-4.41;98.82
80733;BME280;70130;44.534;18.678;2024-01-30T05:45:17;101138.25;;;-4.54;98.99
80733;BME280;70130;44.534;18.678;2024-01-30T05:47:46;101153.72;;;-4.59;99.50
80733;BME280;70130;44.534;18.678;2024-01-30T05:50:12;101145.16;;;-4.53;99.82
80733;BME280;70130;44.534;18.678;2024-01-30T05:52:37;101147.47;;;-4.58;99.73
80733;BME280;70130;44.534;18.678;2024-01-30T05:55:03;101145.28;;;-4.46;99.94
80733;BME280;70130;44.534;18.678;2024-01-30T05:57:33;101156.22;;;-4.43;99.90
80733;BME280;70130;44.534;18.678;2024-01-30T05:59:58;101148.34;;;-4.43;99.79
80733;BME280;70130;44.534;18.678;2024-01-30T06:02:24;101149.34;;;-4.44;99.82
80733;BME280;70130;44.534;18.678;2024-01-30T06:04:49;101121.91;;;-4.56;99.58
80733;BME280;70130;44.534;18.678;2024-01-30T06:07:15;101140.69;;;-4.44;99.67
80733;BME280;70130;44.534;18.678;2024-01-30T06:09:42;101154.56;;;-4.36;99.57
80733;BME280;70130;44.534;18.678;2024-01-30T06:12:08;101134.44;;;-4.43;99.55
80733;BME280;70130;44.534;18.678;2024-01-30T06:14:34;101148.03;;;-4.40;99.38
80733;BME280;70130;44.534;18.678;2024-01-30T06:17:00;101155.91;;;-4.40;99.29
80733;BME280;70130;44.534;18.678;2024-01-30T06:19:25;101143.13;;;-4.73;99.80
80733;BME280;70130;44.534;18.678;2024-01-30T06:21:51;101131.88;;;-4.82;100.00
80733;BME280;70130;44.534;18.678;2024-01-30T06:24:16;101155.53;;;-4.67;100.00
80733;BME280;70130;44.534;18.678;2024-01-30T06:26:42;101149.19;;;-4.73;99.93
80733;BME280;70130;44.534;18.678;2024-01-30T06:29:08;101153.53;;;-4.57;99.92
80733;BME280;70130;44.534;18.678;2024-01-30T06:31:40;101142.41;;;-4.59;99.78
80733;BME280;70130;44.534;18.678;2024-01-30T06:34:07;101149.63;;;-4.61;99.57
80733;BME280;70130;44.534;18.678;2024-01-30T06:36:33;101159.03;;;-4.44;99.44
80733;BME280;70130;44.534;18.678;2024-01-30T06:39:00;101150.66;;;-4.40;99.17
80733;BME280;70130;44.534;18.678;2024-01-30T06:41:25;101152.31;;;-4.47;99.49
80733;BME280;70130;44.534;18.678;2024-01-30T06:43:51;101158.16;;;-4.37;99.57
80733;BME280;70130;44.534;18.678;2024-01-30T06:46:17;101154.56;;;-4.36;99.21
80733;BME280;70130;44.534;18.678;2024-01-30T06:48:43;101156.50;;;-4.38;99.20
80733;BME280;70130;44.534;18.678;2024-01-30T06:51:11;101142.59;;;-4.38;98.70
80733;BME280;70130;44.534;18.678;2024-01-30T06:53:38;101156.78;;;-4.24;98.52
80733;BME280;70130;44.534;18.678;2024-01-30T06:56:04;101166.97;;;-4.29;98.44
80733;BME280;70130;44.534;18.678;2024-01-30T06:58:30;101150.22;;;-4.28;98.75
80733;BME280;70130;44.534;18.678;2024-01-30T07:00:56;101160.00;;;-4.22;99.08
80733;BME280;70130;44.534;18.678;2024-01-30T07:03:22;101161.78;;;-4.15;99.02
80733;BME280;70130;44.534;18.678;2024-01-30T07:05:48;101162.41;;;-4.13;99.03
80733;BME280;70130;44.534;18.678;2024-01-30T07:08:15;101150.28;;;-4.14;98.58
80733;BME280;70130;44.534;18.678;2024-01-30T07:10:43;101164.50;;;-4.08;98.81
80733;BME280;70130;44.534;18.678;2024-01-30T07:13:10;101163.16;;;-4.04;98.95
80733;BME280;70130;44.534;18.678;2024-01-30T07:15:36;101153.31;;;-4.02;99.15
80733;BME280;70130;44.534;18.678;2024-01-30T07:18:05;101163.03;;;-3.88;99.23
80733;BME280;70130;44.534;18.678;2024-01-30T07:20:31;101159.72;;;-3.82;99.13
80733;BME280;70130;44.534;18.678;2024-01-30T07:23:00;101152.09;;;-3.92;99.30
80733;BME280;70130;44.534;18.678;2024-01-30T07:25:25;101152.66;;;-3.81;99.48
80733;BME280;70130;44.534;18.678;2024-01-30T07:27:58;101156.66;;;-3.71;99.69
80733;BME280;70130;44.534;18.678;2024-01-30T07:30:24;101166.69;;;-3.60;99.78
80733;BME280;70130;44.534;18.678;2024-01-30T07:32:52;101174.53;;;-3.52;100.00
80733;BME280;70130;44.534;18.678;2024-01-30T07:35:18;101155.06;;;-3.57;100.00
80733;BME280;70130;44.534;18.678;2024-01-30T07:37:44;101159.59;;;-3.51;100.00
80733;BME280;70130;44.534;18.678;2024-01-30T07:40:09;101168.84;;;-3.40;100.00
80733;BME280;70130;44.534;18.678;2024-01-30T07:42:35;101171.00;;;-3.29;100.00
80733;BME280;70130;44.534;18.678;2024-01-30T07:45:04;101159.94;;;-3.25;99.90
80733;BME280;70130;44.534;18.678;2024-01-30T07:47:29;101158.78;;;-3.22;99.90
80733;BME280;70130;44.534;18.678;2024-01-30T07:49:55;101159.59;;;-3.07;99.84
80733;BME280;70130;44.534;18.678;2024-01-30T07:52:22;101167.47;;;-3.07;99.67
80733;BME280;70130;44.534;18.678;2024-01-30T07:54:51;101157.59;;;-3.05;99.43
80733;BME280;70130;44.534;18.678;2024-01-30T07:57:17;101163.84;;;-2.91;99.30
80733;BME280;70130;44.534;18.678;2024-01-30T07:59:44;101169.63;;;-2.81;99.20
80733;BME280;70130;44.534;18.678;2024-01-30T08:02:11;101170.53;;;-2.74;99.31
80733;BME280;70130;44.534;18.678;2024-01-30T08:04:37;101158.94;;;-2.80;100.00
80733;BME280;70130;44.534;18.678;2024-01-30T08:07:03;101151.25;;;-2.81;100.00
80733;BME280;70130;44.534;18.678;2024-01-30T08:09:29;101172.50;;;-2.62;100.00
80733;BME280;70130;44.534;18.678;2024-01-30T08:11:54;101167.94;;;-2.53;99.88
80733;BME280;70130;44.534;18.678;2024-01-30T08:14:20;101168.81;;;-2.46;99.88
80733;BME280;70130;44.534;18.678;2024-01-30T08:16:46;101161.38;;;-2.42;99.54
80733;BME280;70130;44.534;18.678;2024-01-30T08:19:14;101152.81;;;-2.30;99.38
80733;BME280;70130;44.534;18.678;2024-01-30T08:21:41;101163.59;;;-2.25;99.08
80733;BME280;70130;44.534;18.678;2024-01-30T08:24:07;101158.41;;;-2.18;99.06
80733;BME280;70130;44.534;18.678;2024-01-30T08:26:33;101150.25;;;-2.23;98.83
80733;BME280;70130;44.534;18.678;2024-01-30T08:28:59;101165.78;;;-2.07;99.10
80733;BME280;70130;44.534;18.678;2024-01-30T08:31:27;101152.94;;;-2.17;100.00
80733;BME280;70130;44.534;18.678;2024-01-30T08:33:56;101164.78;;;-2.06;100.00
80733;BME280;70130;44.534;18.678;2024-01-30T08:36:23;101148.38;;;-2.08;100.00
80733;BME280;70130;44.534;18.678;2024-01-30T08:38:49;101158.13;;;-2.02;100.00
80733;BME280;70130;44.534;18.678;2024-01-30T08:41:15;101163.47;;;-1.95;100.00
80733;BME280;70130;44.534;18.678;2024-01-30T08:43:40;101159.91;;;-1.88;100.00
80733;BME280;70130;44.534;18.678;2024-01-30T08:46:06;101147.75;;;-1.89;100.00
80733;BME280;70130;44.534;18.678;2024-01-30T08:48:32;101151.47;;;-1.77;100.00
80733;BME280;70130;44.534;18.678;2024-01-30T08:51:00;101143.00;;;-1.72;100.00
80733;BME280;70130;44.534;18.678;2024-01-30T08:53:26;101130.84;;;-1.73;100.00
80733;BME280;70130;44.534;18.678;2024-01-30T08:55:51;101159.97;;;-1.47;100.00
80733;BME280;70130;44.534;18.678;2024-01-30T08:58:17;101145.75;;;-1.52;100.00
80733;BME280;70130;44.534;18.678;2024-01-30T09:00:44;101160.63;;;-1.38;100.00
80733;BME280;70130;44.534;18.678;2024-01-30T09:03:10;101155.84;;;-1.28;100.00
80733;BME280;70130;44.534;18.678;2024-01-30T09:05:36;101113.59;;;-1.48;100.00
80733;BME280;70130;44.534;18.678;2024-01-30T09:08:02;101155.13;;;-1.15;100.00
80733;BME280;70130;44.534;18.678;2024-01-30T09:10:27;101152.31;;;-1.07;100.00
80733;BME280;70130;44.534;18.678;2024-01-30T09:12:53;101148.28;;;-1.03;100.00
80733;BME280;70130;44.534;18.678;2024-01-30T09:15:19;101142.06;;;-0.96;100.00
80733;BME280;70130;44.534;18.678;2024-01-30T09:17:44;101162.00;;;-0.73;100.00
80733;BME280;70130;44.534;18.678;2024-01-30T09:20:10;101161.84;;;-0.59;99.69
80733;BME280;70130;44.534;18.678;2024-01-30T09:22:37;101154.97;;;-0.53;99.56
80733;BME280;70130;44.534;18.678;2024-01-30T09:25:02;101154.22;;;-0.40;99.41
80733;BME280;70130;44.534;18.678;2024-01-30T09:27:28;101153.63;;;-0.36;99.12
80733;BME280;70130;44.534;18.678;2024-01-30T09:29:55;101148.72;;;-0.39;99.01
80733;BME280;70130;44.534;18.678;2024-01-30T09:32:24;101142.66;;;-0.33;98.82
80733;BME280;70130;44.534;18.678;2024-01-30T09:34:53;101141.22;;;-0.29;98.92
80733;BME280;70130;44.534;18.678;2024-01-30T09:37:22;101144.34;;;-0.06;98.17
80733;BME280;70130;44.534;18.678;2024-01-30T09:39:50;101139.25;;;-0.07;97.61
80733;BME280;70130;44.534;18.678;2024-01-30T09:42:36;101152.66;;;0.05;97.07
80733;BME280;70130;44.534;18.678;2024-01-30T09:45:05;101146.97;;;0.08;97.43
80733;BME280;70130;44.534;18.678;2024-01-30T09:47:41;101133.16;;;0.12;97.08
80733;BME280;70130;44.534;18.678;2024-01-30T09:50:11;101146.16;;;0.27;97.07
80733;BME280;70130;44.534;18.678;2024-01-30T09:52:37;101132.34;;;0.25;96.22
80733;BME280;70130;44.534;18.678;2024-01-30T09:55:03;101133.97;;;0.32;95.76
80733;BME280;70130;44.534;18.678;2024-01-30T09:57:31;101137.63;;;0.38;95.50
80733;BME280;70130;44.534;18.678;2024-01-30T09:59:57;101129.09;;;0.42;95.48
80733;BME280;70130;44.534;18.678;2024-01-30T10:02:24;101133.13;;;0.58;95.21
80733;BME280;70130;44.534;18.678;2024-01-30T10:04:54;101131.03;;;0.80;93.97
80733;BME280;70130;44.534;18.678;2024-01-30T10:07:22;101121.66;;;0.84;93.33
80733;BME280;70130;44.534;18.678;2024-01-30T10:09:49;101112.72;;;0.92;93.00
80733;BME280;70130;44.534;18.678;2024-01-30T10:12:15;101116.53;;;1.02;92.51
80733;BME280;70130;44.534;18.678;2024-01-30T10:14:42;101109.56;;;1.14;92.11
80733;BME280;70130;44.534;18.678;2024-01-30T10:17:08;101108.88;;;1.32;91.83
80733;BME280;70130;44.534;18.678;2024-01-30T10:19:38;101108.34;;;1.48;90.53
80733;BME280;70130;44.534;18.678;2024-01-30T10:22:05;101101.13;;;1.37;90.57
80733;BME280;70130;44.534;18.678;2024-01-30T10:24:33;101099.88;;;1.40;90.22
80733;BME280;70130;44.534;18.678;2024-01-30T10:26:59;101095.38;;;1.47;90.20
80733;BME280;70130;44.534;18.678;2024-01-30T10:29:26;101094.47;;;1.59;89.25
80733;BME280;70130;44.534;18.678;2024-01-30T10:32:02;101049.66;;;1.33;88.81
80733;BME280;70130;44.534;18.678;2024-01-30T10:34:28;101072.91;;;1.56;88.51
80733;BME280;70130;44.534;18.678;2024-01-30T10:37:15;101075.38;;;1.82;87.85
80733;BME280;70130;44.534;18.678;2024-01-30T10:39:45;101071.91;;;1.82;88.43
80733;BME280;70130;44.534;18.678;2024-01-30T10:42:14;101070.00;;;1.89;87.83
80733;BME280;70130;44.534;18.678;2024-01-30T10:45:08;101062.03;;;1.95;87.17
80733;BME280;70130;44.534;18.678;2024-01-30T10:47:39;101062.84;;;1.96;86.72
80733;BME280;70130;44.534;18.678;2024-01-30T10:50:05;101060.72;;;2.04;86.79
80733;BME280;70130;44.534;18.678;2024-01-30T10:52:33;101064.78;;;2.07;86.07
80733;BME280;70130;44.534;18.678;2024-01-30T10:54:59;101016.66;;;1.92;85.72
80733;BME280;70130;44.534;18.678;2024-01-30T10:57:28;101012.16;;;1.92;85.76
80733;BME280;70130;44.534;18.678;2024-01-30T10:59:59;101030.50;;;2.12;83.32
80733;BME280;70130;44.534;18.678;2024-01-30T11:02:26;101029.94;;;2.28;82.22
80733;BME280;70130;44.534;18.678;2024-01-30T11:04:59;101026.97;;;2.73;77.53
80733;BME280;70130;44.534;18.678;2024-01-30T11:07:27;101033.25;;;2.60;79.02
80733;BME280;70130;44.534;18.678;2024-01-30T11:09:59;101036.78;;;2.72;79.42
80733;BME280;70130;44.534;18.678;2024-01-30T11:12:32;101021.09;;;2.71;79.17
80733;BME280;70130;44.534;18.678;2024-01-30T11:15:02;101019.91;;;2.85;78.95
80733;BME280;70130;44.534;18.678;2024-01-30T11:20:22;101026.72;;;2.92;78.53
80733;BME280;70130;44.534;18.678;2024-01-30T11:22:52;101021.97;;;2.83;77.96
80733;BME280;70130;44.534;18.678;2024-01-30T11:25:20;101014.00;;;2.83;76.16
80733;BME280;70130;44.534;18.678;2024-01-30T11:27:47;100997.53;;;2.81;74.97
80733;BME280;70130;44.534;18.678;2024-01-30T11:30:30;101014.41;;;3.28;71.60
80733;BME280;70130;44.534;18.678;2024-01-30T11:33:02;101017.44;;;3.43;71.14
80733;BME280;70130;44.534;18.678;2024-01-30T11:35:36;101005.38;;;3.59;67.46
80733;BME280;70130;44.534;18.678;2024-01-30T11:38:03;101022.75;;;3.43;69.38
80733;BME280;70130;44.534;18.678;2024-01-30T11:40:30;101007.06;;;3.30;69.65
80733;BME280;70130;44.534;18.678;2024-01-30T11:42:56;101001.06;;;3.46;70.62
80733;BME280;70130;44.534;18.678;2024-01-30T11:45:23;101002.69;;;3.47;69.94
80733;BME280;70130;44.534;18.678;2024-01-30T11:47:49;100995.44;;;3.54;69.46
80733;BME280;70130;44.534;18.678;2024-01-30T11:50:15;100996.63;;;3.70;69.34
80733;BME280;70130;44.534;18.678;2024-01-30T11:52:41;100986.56;;;3.83;68.53
80733;BME280;70130;44.534;18.678;2024-01-30T11:55:07;100993.16;;;4.04;68.30
80733;BME280;70130;44.534;18.678;2024-01-30T11:57:33;100975.47;;;4.21;67.48
80733;BME280;70130;44.534;18.678;2024-01-30T12:00:01;100989.88;;;4.49;66.54
80733;BME280;70130;44.534;18.678;2024-01-30T12:02:29;100968.72;;;4.42;64.72
80733;BME280;70130;44.534;18.678;2024-01-30T12:04:55;100983.28;;;4.40;65.64
80733;BME280;70130;44.534;18.678;2024-01-30T12:07:21;100969.34;;;4.21;66.29
80733;BME280;70130;44.534;18.678;2024-01-30T12:09:53;100977.22;;;4.04;67.55
80733;BME280;70130;44.534;18.678;2024-01-30T12:12:22;100976.16;;;4.05;66.33
80733;BME280;70130;44.534;18.678;2024-01-30T12:14:48;100956.34;;;3.84;66.97
80733;BME280;70130;44.534;18.678;2024-01-30T12:22:30;100956.75;;;4.28;66.16
80733;BME280;70130;44.534;18.678;2024-01-30T12:24:56;100951.22;;;4.18;67.07
80733;BME280;70130;44.534;18.678;2024-01-30T12:27:22;100943.56;;;4.10;67.47
80733;BME280;70130;44.534;18.678;2024-01-30T12:29:47;100941.50;;;4.12;67.05
80733;BME280;70130;44.534;18.678;2024-01-30T12:32:16;100937.88;;;4.29;66.37
80733;BME280;70130;44.534;18.678;2024-01-30T12:34:42;100937.56;;;4.26;67.09
80733;BME280;70130;44.534;18.678;2024-01-30T12:37:08;100902.03;;;4.04;67.03
80733;BME280;70130;44.534;18.678;2024-01-30T12:39:35;100939.44;;;4.54;65.46
80733;BME280;70130;44.534;18.678;2024-01-30T12:42:01;100943.06;;;4.48;65.72
80733;BME280;70130;44.534;18.678;2024-01-30T12:44:27;100934.63;;;4.39;65.13
80733;BME280;70130;44.534;18.678;2024-01-30T12:46:52;100937.38;;;4.44;64.78
80733;BME280;70130;44.534;18.678;2024-01-30T12:49:18;100941.81;;;4.67;63.96
80733;BME280;70130;44.534;18.678;2024-01-30T12:51:43;100930.78;;;4.75;63.24